Time;durP1;ratioP1;P1;durP2;ratioP2;P2;SDS_P1;SDS_P2;PMS_P1;PMS_P2;Temp;Humidity;BMP_temperature;BMP_pressure;BME280_temperature;BME280_humidity;BME280_pressure;Samples;Min_cycle;Max_cycle;Signal;HPM_P1;HPM_P2
2024/03/25 00:01:54;;;;;;;;;;;19.90;41.30;;;;;;8322137;28;20319;-56
2024/03/25 00:05:55;;;;;;;;;;;19.90;40.90;;;;;;8321911;28;19909;-56
2024/03/25 00:09:56;;;;;;;;;;;20.00;40.70;;;;;;8322191;28;19965;-56
2024/03/25 00:13:56;;;;;;;;;;;20.00;40.50;;;;;;8343061;27;20310;-55
2024/03/25 00:17:57;;;;;;;;;;;20.00;40.40;;;;;;8354884;28;19949;-57
2024/03/25 00:21:58;;;;;;;;;;;20.00;40.50;;;;;;8354510;28;20359;-57
2024/03/25 00:25:58;;;;;;;;;;;20.00;40.10;;;;;;8354687;28;19913;-56
2024/03/25 00:29:59;;;;;;;;;;;20.00;40.00;;;;;;8354428;28;20366;-57
2024/03/25 00:33:59;;;;;;;;;;;19.90;39.90;;;;;;8354465;28;19913;-55
2024/03/25 00:38:00;;;;;;;;;;;19.90;40.80;;;;;;8354470;28;19916;-56
2024/03/25 00:42:01;;;;;;;;;;;19.70;41.80;;;;;;8354071;28;19956;-56
2024/03/25 00:46:01;;;;;;;;;;;19.60;41.60;;;;;;8354119;28;19909;-55
2024/03/25 00:50:02;;;;;;;;;;;19.70;41.20;;;;;;8353877;28;19973;-56
2024/03/25 00:54:03;;;;;;;;;;;19.80;40.80;;;;;;8353865;28;20019;-54
2024/03/25 00:58:03;;;;;;;;;;;19.80;40.50;;;;;;8354961;28;19916;-54
2024/03/25 01:02:04;;;;;;;;;;;19.90;40.40;;;;;;8359495;28;19921;-56
2024/03/25 01:06:05;;;;;;;;;;;19.90;40.70;;;;;;8342140;28;20005;-56
2024/03/25 01:10:06;;;;;;;;;;;19.90;40.10;;;;;;8359343;28;19913;-56
2024/03/25 01:14:06;;;;;;;;;;;19.90;40.00;;;;;;8358936;28;20464;-57
2024/03/25 01:18:08;;;;;;;;;;;19.80;39.90;;;;;;8359159;28;20425;-55
2024/03/25 01:22:08;;;;;;;;;;;19.80;39.90;;;;;;8359054;28;19999;-55
2024/03/25 01:26:09;;;;;;;;;;;19.80;40.80;;;;;;8359088;28;19909;-57
2024/03/25 01:30:10;;;;;;;;;;;19.60;41.70;;;;;;8358796;28;19920;-56
2024/03/25 01:34:11;;;;;;;;;;;19.60;41.50;;;;;;8358716;28;19913;-56
2024/03/25 01:38:12;;;;;;;;;;;19.60;40.90;;;;;;8358746;28;20596;-56
2024/03/25 01:42:13;;;;;;;;;;;19.70;40.70;;;;;;8358990;28;19924;-56
2024/03/25 01:46:14;;;;;;;;;;;19.70;40.40;;;;;;8358984;28;19913;-56
2024/03/25 01:50:16;;;;;;;;;;;19.70;40.20;;;;;;8358343;28;20008;-56
2024/03/25 01:54:16;;;;;;;;;;;19.80;40.10;;;;;;8358739;28;19913;-55
2024/03/25 01:58:17;;;;;;;;;;;19.80;40.00;;;;;;8357996;28;19917;-56
2024/03/25 02:02:18;;;;;;;;;;;19.80;39.90;;;;;;8357797;28;20258;-56
2024/03/25 02:06:18;;;;;;;;;;;19.80;39.80;;;;;;8358176;28;19913;-57
2024/03/25 02:10:20;;;;;;;;;;;19.80;39.80;;;;;;8356922;28;20368;-56
2024/03/25 02:14:21;;;;;;;;;;;19.70;40.80;;;;;;8357563;27;19925;-55
2024/03/25 02:18:21;;;;;;;;;;;19.50;41.60;;;;;;8357621;28;19913;-55
2024/03/25 02:22:22;;;;;;;;;;;19.50;41.30;;;;;;8357474;28;20390;-55
2024/03/25 02:26:23;;;;;;;;;;;19.60;40.80;;;;;;8339796;28;19913;-55
2024/03/25 02:30:23;;;;;;;;;;;19.60;40.50;;;;;;8357008;28;19913;-56
2024/03/25 02:34:26;;;;;;;;;;;19.70;40.30;;;;;;8357107;28;20207;-56
2024/03/25 02:38:27;;;;;;;;;;;19.70;40.10;;;;;;8356959;28;19931;-56
2024/03/25 02:42:28;;;;;;;;;;;19.70;39.90;;;;;;8356631;28;20370;-56
2024/03/25 02:46:29;;;;;;;;;;;19.70;39.80;;;;;;8356999;28;20507;-56
2024/03/25 02:50:29;;;;;;;;;;;19.70;39.70;;;;;;8356591;28;19920;-55
2024/03/25 02:54:30;;;;;;;;;;;19.80;39.60;;;;;;8356890;28;19919;-55
2024/03/25 02:58:30;;;;;;;;;;;19.70;39.60;;;;;;8356690;28;19909;-56
2024/03/25 03:02:31;;;;;;;;;;;19.60;40.70;;;;;;8356352;28;19917;-56
2024/03/25 03:06:31;;;;;;;;;;;19.40;41.50;;;;;;8356666;28;19913;-56
2024/03/25 03:10:32;;;;;;;;;;;19.50;41.10;;;;;;8356518;28;20281;-56
2024/03/25 03:14:33;;;;;;;;;;;19.50;40.60;;;;;;8355802;28;19978;-56
2024/03/25 03:18:34;;;;;;;;;;;19.60;40.30;;;;;;8356201;28;20329;-56
2024/03/25 03:22:35;;;;;;;;;;;19.70;40.10;;;;;;8354891;28;20361;-55
2024/03/25 03:26:36;;;;;;;;;;;19.70;39.90;;;;;;8355797;28;20538;-54
2024/03/25 03:30:36;;;;;;;;;;;19.70;39.80;;;;;;8355861;27;19921;-54
2024/03/25 03:34:37;;;;;;;;;;;19.70;39.70;;;;;;8355801;28;20489;-55
2024/03/25 03:38:37;;;;;;;;;;;19.70;39.70;;;;;;8355585;28;20003;-54
2024/03/25 03:42:38;;;;;;;;;;;19.70;39.60;;;;;;8355436;28;19924;-54
2024/03/25 03:46:38;;;;;;;;;;;19.70;39.50;;;;;;8355473;28;20369;-54
2024/03/25 03:50:39;;;;;;;;;;;19.50;40.70;;;;;;8355298;28;19909;-54
2024/03/25 03:54:39;;;;;;;;;;;19.40;41.50;;;;;;8356422;28;20437;-53
2024/03/25 03:58:40;;;;;;;;;;;19.50;41.00;;;;;;8355226;28;19913;-55
2024/03/25 04:02:40;;;;;;;;;;;19.50;40.50;;;;;;8355977;28;19917;-54
2024/03/25 04:06:41;;;;;;;;;;;19.60;40.20;;;;;;8355103;28;19956;-54
2024/03/25 04:10:42;;;;;;;;;;;19.60;40.00;;;;;;8354699;28;19969;-52
2024/03/25 04:14:43;;;;;;;;;;;19.60;39.80;;;;;;8354794;27;19925;-55
2024/03/25 04:18:43;;;;;;;;;;;19.60;39.70;;;;;;8354938;28;20366;-53
2024/03/25 04:22:45;;;;;;;;;;;19.60;39.60;;;;;;8354329;28;19917;-54
2024/03/25 04:26:46;;;;;;;;;;;19.70;39.60;;;;;;8354619;28;19973;-54
2024/03/25 04:30:55;;;;;;;;;;;19.70;39.50;;;;;;8354604;28;19999;-54
2024/03/25 04:34:56;;;;;;;;;;;19.70;39.40;;;;;;8358314;28;19908;-57
2024/03/25 04:38:57;;;;;;;;;;;19.50;40.80;;;;;;8360185;28;20393;-56
2024/03/25 04:42:58;;;;;;;;;;;19.30;41.30;;;;;;8359849;27;19970;-56
2024/03/25 04:46:58;;;;;;;;;;;19.40;40.70;;;;;;8359817;28;19913;-56
2024/03/25 04:51:00;;;;;;;;;;;19.50;40.30;;;;;;8359997;28;19909;-57
2024/03/25 04:55:00;;;;;;;;;;;19.60;40.00;;;;;;8359574;28;19913;-57
2024/03/25 04:59:01;;;;;;;;;;;19.60;39.80;;;;;;8359717;28;19913;-56
2024/03/25 05:03:02;;;;;;;;;;;19.60;39.60;;;;;;8359420;28;19917;-56
2024/03/25 05:07:03;;;;;;;;;;;19.60;39.50;;;;;;8359483;28;19920;-57
2024/03/25 05:11:04;;;;;;;;;;;19.70;39.40;;;;;;8359282;28;19913;-56
2024/03/25 05:15:05;;;;;;;;;;;19.70;39.40;;;;;;8358867;27;19947;-55
2024/03/25 05:19:06;;;;;;;;;;;19.70;39.20;;;;;;8359160;28;19913;-57
2024/03/25 05:23:07;;;;;;;;;;;19.80;39.20;;;;;;8358965;28;19952;-57
2024/03/25 05:27:07;;;;;;;;;;;19.60;40.30;;;;;;8358912;28;19935;-57
2024/03/25 05:31:08;;;;;;;;;;;19.60;40.60;;;;;;8358840;28;20613;-56
2024/03/25 05:35:10;;;;;;;;;;;19.70;40.10;;;;;;8358646;28;20362;-55
2024/03/25 05:39:10;;;;;;;;;;;19.70;39.70;;;;;;8358938;28;19996;-55
2024/03/25 05:43:11;;;;;;;;;;;19.80;39.50;;;;;;8358218;28;19924;-56
2024/03/25 05:47:11;;;;;;;;;;;19.80;39.30;;;;;;8357474;28;19981;-56
2024/03/25 05:51:12;;;;;;;;;;;19.90;39.20;;;;;;8358349;28;19916;-55
2024/03/25 05:55:12;;;;;;;;;;;19.80;39.00;;;;;;8358257;28;19913;-56
2024/03/25 05:59:13;;;;;;;;;;;19.80;38.90;;;;;;8358289;28;19917;-55
2024/03/25 06:03:14;;;;;;;;;;;19.90;38.80;;;;;;8357585;28;20007;-57
2024/03/25 06:07:15;;;;;;;;;;;19.90;38.80;;;;;;8357938;28;19908;-56
2024/03/25 06:11:15;;;;;;;;;;;19.90;38.90;;;;;;8358684;28;20007;-54
2024/03/25 06:15:16;;;;;;;;;;;19.70;40.10;;;;;;8357125;27;19925;-56
2024/03/25 06:19:16;;;;;;;;;;;19.70;40.30;;;;;;8358578;28;20385;-56
2024/03/25 06:23:27;;;;;;;;;;;19.70;39.70;;;;;;8357322;28;19920;-56
2024/03/25 06:27:27;;;;;;;;;;;19.80;39.40;;;;;;8357215;28;19920;-57
2024/03/25 06:35:47;;;;;;;;;;;19.80;39.00;;;;;;8356880;28;19916;-55
2024/03/25 06:39:48;;;;;;;;;;;19.90;38.80;;;;;;8357025;28;20000;-56
2024/03/25 06:43:49;;;;;;;;;;;19.90;38.80;;;;;;8358499;27;19981;-56
2024/03/25 06:47:49;;;;;;;;;;;19.90;38.70;;;;;;8356563;28;19962;-57
2024/03/25 06:51:50;;;;;;;;;;;19.90;38.60;;;;;;8339040;28;19913;-54
2024/03/25 06:55:58;;;;;;;;;;;19.90;38.50;;;;;;8356451;28;19913;-56
2024/03/25 06:59:58;;;;;;;;;;;19.90;39.00;;;;;;8356358;28;19913;-56
2024/03/25 07:03:59;;;;;;;;;;;19.80;40.00;;;;;;8356850;28;19920;-56
2024/03/25 07:07:59;;;;;;;;;;;19.80;40.00;;;;;;8356207;28;19935;-56
2024/03/25 07:12:00;;;;;;;;;;;19.90;39.50;;;;;;8356076;28;19919;-56
2024/03/25 07:16:00;;;;;;;;;;;19.90;39.20;;;;;;8355958;28;20403;-57
2024/03/25 07:20:01;;;;;;;;;;;19.90;39.00;;;;;;8356053;28;19908;-57
2024/03/25 07:24:02;;;;;;;;;;;19.90;38.90;;;;;;8355878;28;19917;-56
2024/03/25 07:28:03;;;;;;;;;;;19.90;38.70;;;;;;8355695;28;19932;-56
2024/03/25 07:32:04;;;;;;;;;;;19.90;38.70;;;;;;8355781;28;19971;-56
2024/03/25 07:36:04;;;;;;;;;;;19.90;38.60;;;;;;8355794;28;19912;-55
2024/03/25 07:40:05;;;;;;;;;;;19.90;38.50;;;;;;8355517;28;19920;-56
2024/03/25 07:44:06;;;;;;;;;;;19.90;38.40;;;;;;8355292;27;19945;-56
2024/03/25 07:48:07;;;;;;;;;;;19.90;39.10;;;;;;8355382;28;19909;-56
2024/03/25 07:52:08;;;;;;;;;;;19.80;39.90;;;;;;8355365;28;19919;-56
2024/03/25 07:56:09;;;;;;;;;;;19.80;39.90;;;;;;8355500;28;19912;-57
2024/03/25 08:00:09;;;;;;;;;;;19.80;39.40;;;;;;8337131;28;19940;-56
2024/03/25 08:04:10;;;;;;;;;;;19.90;39.20;;;;;;8355166;28;19917;-54
2024/03/25 08:08:10;;;;;;;;;;;19.80;38.90;;;;;;8356434;28;20287;-54
2024/03/25 08:12:11;;;;;;;;;;;19.90;38.70;;;;;;8361063;28;19913;-54
2024/03/25 08:16:12;;;;;;;;;;;19.90;38.60;;;;;;8360497;28;20433;-55
2024/03/25 08:20:12;;;;;;;;;;;19.90;38.50;;;;;;8360734;28;19916;-54
2024/03/25 08:24:14;;;;;;;;;;;19.90;38.40;;;;;;8360565;28;20374;-54
2024/03/25 08:28:14;;;;;;;;;;;20.00;38.40;;;;;;8360377;28;19912;-55
2024/03/25 08:32:15;;;;;;;;;;;20.00;38.30;;;;;;8360296;28;19968;-55
2024/03/25 08:36:15;;;;;;;;;;;19.90;39.00;;;;;;8361495;28;20381;-54
2024/03/25 08:40:16;;;;;;;;;;;19.80;39.80;;;;;;8342146;28;19909;-55
2024/03/25 08:44:16;;;;;;;;;;;19.80;39.60;;;;;;8359874;28;20003;-54
2024/03/25 08:48:18;;;;;;;;;;;19.80;39.20;;;;;;8359933;28;19913;-54
2024/03/25 08:52:18;;;;;;;;;;;19.90;38.90;;;;;;8359762;28;19952;-54
2024/03/25 08:56:19;;;;;;;;;;;19.90;38.70;;;;;;8359822;28;19913;-53
2024/03/25 09:00:20;;;;;;;;;;;19.90;38.60;;;;;;8359568;28;19962;-55
2024/03/25 09:04:20;;;;;;;;;;;19.90;38.50;;;;;;8359429;28;19965;-55
2024/03/25 09:08:22;;;;;;;;;;;19.90;38.40;;;;;;8341569;28;19913;-54
2024/03/25 09:12:22;;;;;;;;;;;20.00;38.40;;;;;;8361293;27;19936;-55
2024/03/25 09:16:23;;;;;;;;;;;19.90;38.30;;;;;;8358909;28;19932;-55
2024/03/25 09:20:23;;;;;;;;;;;19.90;38.30;;;;;;8359696;28;19913;-54
2024/03/25 09:24:24;;;;;;;;;;;19.80;39.10;;;;;;8341181;28;19924;-55
2024/03/25 09:28:25;;;;;;;;;;;19.70;39.90;;;;;;8358909;27;19913;-54
2024/03/25 09:32:26;;;;;;;;;;;19.70;39.60;;;;;;8358860;28;19961;-55
2024/03/25 09:36:26;;;;;;;;;;;19.80;39.20;;;;;;8359004;28;19913;-55
2024/03/25 09:40:27;;;;;;;;;;;19.80;38.90;;;;;;8358438;28;19962;-54
2024/03/25 09:44:29;;;;;;;;;;;19.80;38.70;;;;;;8360274;27;19923;-54
2024/03/25 09:48:30;;;;;;;;;;;19.90;38.60;;;;;;8358235;28;20374;-55
2024/03/25 09:52:30;;;;;;;;;;;19.90;38.40;;;;;;8358409;28;20389;-54
2024/03/25 09:56:31;;;;;;;;;;;19.90;38.30;;;;;;8358298;28;19919;-55
2024/03/25 10:00:32;;;;;;;;;;;20.00;38.30;;;;;;8358155;28;20161;-55
2024/03/25 10:04:33;;;;;;;;;;;20.00;38.10;;;;;;8357982;28;19913;-55
2024/03/25 10:08:33;;;;;;;;;;;20.00;38.20;;;;;;8357812;28;19917;-55
2024/03/25 10:12:35;;;;;;;;;;;19.80;39.20;;;;;;8357759;27;19913;-55
2024/03/25 10:16:36;;;;;;;;;;;19.70;39.80;;;;;;8357540;27;20299;-55
2024/03/25 10:20:36;;;;;;;;;;;19.70;39.50;;;;;;8357702;28;19920;-55
2024/03/25 10:24:44;;;;;;;;;;;19.70;39.10;;;;;;8357634;28;19917;-55
2024/03/25 10:28:44;;;;;;;;;;;19.80;38.90;;;;;;8339409;28;20361;-56
2024/03/25 10:32:45;;;;;;;;;;;19.80;38.60;;;;;;8357673;28;20332;-54
2024/03/25 10:36:45;;;;;;;;;;;19.80;38.50;;;;;;8357712;28;19916;-55
2024/03/25 10:40:49;;;;;;;;;;;19.90;38.50;;;;;;8355770;28;20370;-56
2024/03/25 10:44:52;;;;;;;;;;;19.90;38.30;;;;;;8356727;28;20289;-56
2024/03/25 10:49:16;;;;;;;;;;;19.90;38.30;;;;;;8356823;28;19913;-57
2024/03/25 10:53:17;;;;;;;;;;;19.90;38.20;;;;;;8358963;28;20373;-56
2024/03/25 10:57:18;;;;;;;;;;;19.90;38.10;;;;;;8356917;28;19913;-56
2024/03/25 11:01:19;;;;;;;;;;;19.70;39.50;;;;;;8357128;28;20003;-56
2024/03/25 11:05:20;;;;;;;;;;;19.60;40.00;;;;;;8356424;28;19916;-56
2024/03/25 11:09:27;;;;;;;;;;;19.70;39.40;;;;;;8356946;28;19960;-56
2024/03/25 11:13:28;;;;;;;;;;;19.80;39.10;;;;;;8356206;27;20277;-56
2024/03/25 11:17:29;;;;;;;;;;;19.80;38.80;;;;;;8356210;28;19939;-56
2024/03/25 11:21:29;;;;;;;;;;;19.80;38.60;;;;;;8356093;28;19921;-56
2024/03/25 11:25:30;;;;;;;;;;;19.90;38.50;;;;;;8356250;28;20600;-56
2024/03/25 11:29:31;;;;;;;;;;;19.80;38.30;;;;;;8355669;28;19913;-56
2024/03/25 11:33:31;;;;;;;;;;;19.80;38.30;;;;;;8355943;28;19947;-55
2024/03/25 11:37:38;;;;;;;;;;;19.90;38.20;;;;;;8355781;28;19913;-55
2024/03/25 11:41:41;;;;;;;;;;;19.90;38.10;;;;;;8355213;27;19975;-54
2024/03/25 11:45:42;;;;;;;;;;;19.80;38.30;;;;;;8337224;28;19965;-54
2024/03/25 11:49:42;;;;;;;;;;;19.70;39.60;;;;;;8355399;28;19962;-55
2024/03/25 11:53:43;;;;;;;;;;;19.60;39.90;;;;;;8355451;28;20278;-54
2024/03/25 11:57:44;;;;;;;;;;;19.70;39.40;;;;;;8355441;28;20000;-55
2024/03/25 12:01:45;;;;;;;;;;;19.80;39.00;;;;;;8355237;28;19924;-55
2024/03/25 12:05:45;;;;;;;;;;;19.80;38.70;;;;;;8354942;28;19920;-53
2024/03/25 12:14:05;;;;;;;;;;;19.80;38.40;;;;;;8355007;27;19977;-55
2024/03/25 12:18:06;;;;;;;;;;;19.80;38.30;;;;;;8354766;28;19913;-54
2024/03/25 12:22:07;;;;;;;;;;;19.90;38.20;;;;;;8354759;28;20430;-54
2024/03/25 12:26:08;;;;;;;;;;;19.90;38.10;;;;;;8354656;28;19909;-54
2024/03/25 12:30:09;;;;;;;;;;;19.80;38.00;;;;;;8354649;28;19938;-55
2024/03/25 12:34:12;;;;;;;;;;;19.80;38.60;;;;;;8354568;28;19913;-55
2024/03/25 12:38:25;;;;;;;;;;;19.70;39.70;;;;;;8354279;28;20286;-54
2024/03/25 12:42:29;;;;;;;;;;;19.60;39.80;;;;;;8354175;28;19913;-54
2024/03/25 12:46:30;;;;;;;;;;;19.70;39.30;;;;;;8336565;28;19920;-57
2024/03/25 12:50:30;;;;;;;;;;;19.70;38.80;;;;;;8354132;28;19920;-56
2024/03/25 12:54:32;;;;;;;;;;;19.80;38.60;;;;;;8355930;28;20382;-57
2024/03/25 12:58:32;;;;;;;;;;;19.80;38.50;;;;;;8359741;28;20328;-57
2024/03/25 13:02:33;;;;;;;;;;;19.90;38.40;;;;;;8359823;28;19921;-57
2024/03/25 13:06:33;;;;;;;;;;;19.90;38.20;;;;;;8359654;28;19913;-57
2024/03/25 13:10:34;;;;;;;;;;;19.80;38.10;;;;;;8360311;28;19913;-55
2024/03/25 13:14:35;;;;;;;;;;;19.90;38.00;;;;;;8324874;28;19925;-57
2024/03/25 13:18:35;;;;;;;;;;;19.90;38.00;;;;;;8326454;28;19917;-57
2024/03/25 13:22:36;;;;;;;;;;;19.80;38.60;;;;;;8327100;28;20239;-56
2024/03/25 13:26:37;;;;;;;;;;;19.70;39.60;;;;;;8326932;28;19996;-56
2024/03/25 13:30:37;;;;;;;;;;;19.70;39.50;;;;;;8325977;28;20000;-56
2024/03/25 13:34:38;;;;;;;;;;;19.70;39.10;;;;;;8325928;28;19919;-56
2024/03/25 13:38:39;;;;;;;;;;;19.70;38.70;;;;;;8325832;28;19917;-57
2024/03/25 13:42:40;;;;;;;;;;;19.80;38.50;;;;;;8336482;28;19965;-57
2024/03/25 13:46:40;;;;;;;;;;;19.80;38.30;;;;;;8358689;28;19919;-55
2024/03/25 13:50:41;;;;;;;;;;;19.90;38.20;;;;;;8359384;28;19913;-57
2024/03/25 13:54:42;;;;;;;;;;;19.90;38.20;;;;;;8358359;28;20366;-55
2024/03/25 13:58:43;;;;;;;;;;;19.80;38.00;;;;;;8358241;28;19913;-56
2024/03/25 14:02:43;;;;;;;;;;;19.80;38.00;;;;;;8358017;28;19917;-56
2024/03/25 14:06:45;;;;;;;;;;;19.90;38.00;;;;;;8357026;28;19913;-55
2024/03/25 14:10:56;;;;;;;;;;;19.80;38.80;;;;;;8358011;28;19928;-55
2024/03/25 14:14:57;;;;;;;;;;;19.60;39.70;;;;;;8357575;28;19932;-56
2024/03/25 14:18:57;;;;;;;;;;;19.60;39.50;;;;;;8357582;28;19919;-56
2024/03/25 14:22:58;;;;;;;;;;;19.60;39.00;;;;;;8357640;28;20044;-56
2024/03/25 14:26:58;;;;;;;;;;;19.80;38.70;;;;;;8357626;28;19917;-57
2024/03/25 14:30:59;;;;;;;;;;;19.80;38.50;;;;;;8357472;28;20364;-55
2024/03/25 14:35:00;;;;;;;;;;;19.80;38.30;;;;;;8357416;28;19920;-56
2024/03/25 14:39:01;;;;;;;;;;;19.80;38.10;;;;;;8356962;28;20476;-56
2024/03/25 14:43:02;;;;;;;;;;;19.90;38.10;;;;;;8339275;27;19999;-56
2024/03/25 14:47:02;;;;;;;;;;;19.90;38.00;;;;;;8357127;28;19913;-56
2024/03/25 14:51:03;;;;;;;;;;;19.90;37.90;;;;;;8356776;28;19909;-56
2024/03/25 14:55:04;;;;;;;;;;;19.90;37.90;;;;;;8356846;28;19913;-56
2024/03/25 14:59:05;;;;;;;;;;;19.80;38.90;;;;;;8338834;28;20015;-56
2024/03/25 15:03:05;;;;;;;;;;;19.70;39.70;;;;;;8356617;28;20031;-56
2024/03/25 15:07:06;;;;;;;;;;;19.70;39.40;;;;;;8338420;28;19958;-56
2024/03/25 15:11:07;;;;;;;;;;;19.70;38.90;;;;;;8356792;28;19913;-56
2024/03/25 15:15:08;;;;;;;;;;;19.80;38.60;;;;;;8356141;27;20007;-56
2024/03/25 15:19:09;;;;;;;;;;;19.80;38.40;;;;;;8355838;28;19917;-56
2024/03/25 15:23:09;;;;;;;;;;;19.90;38.20;;;;;;8338128;28;19917;-56
2024/03/25 15:27:10;;;;;;;;;;;19.80;38.00;;;;;;8338567;28;19920;-56
2024/03/25 15:31:10;;;;;;;;;;;19.80;38.00;;;;;;8355841;28;20319;-56
2024/03/25 15:35:11;;;;;;;;;;;19.80;37.90;;;;;;8355665;28;19913;-57
2024/03/25 15:39:12;;;;;;;;;;;19.90;37.90;;;;;;8355638;28;20282;-56
2024/03/25 15:43:14;;;;;;;;;;;19.90;37.90;;;;;;8355622;28;19924;-56
2024/03/25 15:47:14;;;;;;;;;;;19.70;38.90;;;;;;8355423;28;19920;-55
2024/03/25 15:51:17;;;;;;;;;;;19.60;39.70;;;;;;8355351;28;19909;-55
2024/03/25 15:55:18;;;;;;;;;;;19.60;39.40;;;;;;8355381;28;19913;-56
2024/03/25 15:59:19;;;;;;;;;;;19.70;39.00;;;;;;8355298;28;20270;-56
2024/03/25 16:03:19;;;;;;;;;;;19.70;38.60;;;;;;8354944;28;19917;-56
2024/03/25 16:07:20;;;;;;;;;;;19.80;38.40;;;;;;8355068;28;19963;-56
2024/03/25 16:11:21;;;;;;;;;;;19.80;38.20;;;;;;8355206;28;20326;-56
2024/03/25 16:15:21;;;;;;;;;;;19.80;38.10;;;;;;8354921;28;19939;-56
2024/03/25 16:19:22;;;;;;;;;;;19.90;38.00;;;;;;8354705;28;19920;-55
2024/03/25 16:23:22;;;;;;;;;;;19.80;37.90;;;;;;8354706;28;19917;-56
2024/03/25 16:27:23;;;;;;;;;;;19.80;37.90;;;;;;8354699;28;19913;-56
2024/03/25 16:31:23;;;;;;;;;;;19.90;37.80;;;;;;8359647;28;19913;-57
2024/03/25 16:35:24;;;;;;;;;;;19.60;39.00;;;;;;8360398;28;20674;-56
2024/03/25 16:39:24;;;;;;;;;;;19.60;39.70;;;;;;8360829;27;19958;-56
2024/03/25 16:43:25;;;;;;;;;;;19.60;39.20;;;;;;8359873;27;19924;-57
2024/03/25 16:47:26;;;;;;;;;;;19.70;38.80;;;;;;8342525;28;19942;-57
2024/03/25 16:51:26;;;;;;;;;;;19.80;38.50;;;;;;8342179;28;19909;-56
2024/03/25 16:55:27;;;;;;;;;;;19.80;38.30;;;;;;8359738;28;19917;-55
2024/03/25 16:59:27;;;;;;;;;;;19.80;38.20;;;;;;8359691;28;20004;-57
2024/03/25 17:03:28;;;;;;;;;;;19.80;38.00;;;;;;8359666;28;20011;-57
2024/03/25 17:07:28;;;;;;;;;;;19.80;38.00;;;;;;8341698;28;20312;-57
2024/03/25 17:11:29;;;;;;;;;;;19.80;38.00;;;;;;8341435;27;19916;-57
2024/03/25 17:15:30;;;;;;;;;;;19.80;37.90;;;;;;8359353;27;20339;-57
2024/03/25 17:19:30;;;;;;;;;;;19.80;37.80;;;;;;8359119;28;19944;-57
2024/03/25 17:23:31;;;;;;;;;;;19.70;39.00;;;;;;8341090;28;19943;-56
2024/03/25 17:27:31;;;;;;;;;;;19.60;39.60;;;;;;8359020;28;19919;-56
2024/03/25 17:31:32;;;;;;;;;;;19.60;39.20;;;;;;8358992;28;19913;-56
2024/03/25 17:35:33;;;;;;;;;;;19.70;38.80;;;;;;8359460;28;20366;-56
2024/03/25 17:39:34;;;;;;;;;;;19.70;38.50;;;;;;8358222;28;19924;-56
2024/03/25 17:43:37;;;;;;;;;;;19.80;38.20;;;;;;8357544;28;20523;-56
2024/03/25 17:47:37;;;;;;;;;;;19.80;38.00;;;;;;8358729;28;20558;-56
2024/03/25 17:51:38;;;;;;;;;;;19.80;38.00;;;;;;8358489;28;20177;-57
2024/03/25 17:55:38;;;;;;;;;;;19.90;37.90;;;;;;8358251;28;20124;-57
2024/03/25 17:59:39;;;;;;;;;;;19.90;37.80;;;;;;8358366;28;20287;-57
2024/03/25 18:03:39;;;;;;;;;;;19.90;37.70;;;;;;8357935;28;19921;-57
2024/03/25 18:07:42;;;;;;;;;;;19.80;37.60;;;;;;8358051;28;19939;-57
2024/03/25 18:11:43;;;;;;;;;;;19.60;39.00;;;;;;8358470;28;19917;-54
2024/03/25 18:15:50;;;;;;;;;;;19.50;39.60;;;;;;8357698;28;19973;-56
2024/03/25 18:19:51;;;;;;;;;;;19.60;39.00;;;;;;8357718;28;19909;-57
2024/03/25 18:23:51;;;;;;;;;;;19.70;38.70;;;;;;8339801;28;19924;-56
2024/03/25 18:27:52;;;;;;;;;;;19.70;38.40;;;;;;8357348;28;19913;-55
2024/03/25 18:31:52;;;;;;;;;;;19.80;38.10;;;;;;8357579;28;19967;-57
2024/03/25 18:35:53;;;;;;;;;;;19.80;38.00;;;;;;8357355;28;19951;-55
2024/03/25 18:39:54;;;;;;;;;;;19.80;38.00;;;;;;8357080;28;19913;-55
2024/03/25 18:43:54;;;;;;;;;;;19.80;37.90;;;;;;8322766;28;19917;-54
2024/03/25 18:47:55;;;;;;;;;;;19.80;37.80;;;;;;8324140;28;20366;-54
2024/03/25 18:51:55;;;;;;;;;;;19.90;37.80;;;;;;8305773;28;19947;-55
2024/03/25 18:55:56;;;;;;;;;;;19.80;37.90;;;;;;8324164;28;19913;-54
2024/03/25 18:59:56;;;;;;;;;;;19.70;39.10;;;;;;8323799;28;19913;-55
2024/03/25 19:03:57;;;;;;;;;;;19.60;39.50;;;;;;8323522;28;20375;-55
2024/03/25 19:07:57;;;;;;;;;;;19.60;39.00;;;;;;8323604;28;19914;-55
2024/03/25 19:11:58;;;;;;;;;;;19.70;38.70;;;;;;8328840;28;19935;-55
2024/03/25 19:15:59;;;;;;;;;;;19.70;38.30;;;;;;8356131;28;19977;-55
2024/03/25 19:20:00;;;;;;;;;;;19.70;38.10;;;;;;8356425;28;19913;-54
2024/03/25 19:24:00;;;;;;;;;;;19.80;38.00;;;;;;8355854;28;19962;-54
2024/03/25 19:28:01;;;;;;;;;;;19.80;37.90;;;;;;8355882;28;20359;-55
2024/03/25 19:32:01;;;;;;;;;;;19.80;37.80;;;;;;8355980;28;19916;-54
2024/03/25 19:36:02;;;;;;;;;;;19.80;37.70;;;;;;8338087;28;19913;-55
2024/03/25 19:40:03;;;;;;;;;;;19.80;37.60;;;;;;8355609;28;19969;-55
2024/03/25 19:44:04;;;;;;;;;;;19.80;37.90;;;;;;8355851;28;19916;-57
2024/03/25 19:48:05;;;;;;;;;;;19.70;39.00;;;;;;8355647;28;19913;-57
2024/03/25 19:52:05;;;;;;;;;;;19.60;39.30;;;;;;8355412;28;19936;-54
2024/03/25 19:56:06;;;;;;;;;;;19.70;38.70;;;;;;8355307;28;19975;-57
2024/03/25 20:00:07;;;;;;;;;;;19.70;38.40;;;;;;8355210;28;19924;-56
2024/03/25 20:04:08;;;;;;;;;;;19.80;38.20;;;;;;8356428;28;19919;-56
2024/03/25 20:08:08;;;;;;;;;;;19.80;38.00;;;;;;8361120;28;19913;-56
2024/03/25 20:12:09;;;;;;;;;;;19.80;37.90;;;;;;8361236;28;19917;-57
2024/03/25 20:16:09;;;;;;;;;;;19.80;37.80;;;;;;8360868;28;20009;-55
2024/03/25 20:20:12;;;;;;;;;;;19.80;37.70;;;;;;8360604;28;19945;-57
2024/03/25 20:24:12;;;;;;;;;;;19.90;37.70;;;;;;8361241;28;20384;-56
2024/03/25 20:28:13;;;;;;;;;;;19.80;37.60;;;;;;8360532;28;20331;-57
2024/03/25 20:32:13;;;;;;;;;;;19.80;38.00;;;;;;8360393;28;19916;-56
2024/03/25 20:36:14;;;;;;;;;;;19.60;39.10;;;;;;8347272;28;19914;-56
2024/03/25 20:40:14;;;;;;;;;;;19.30;38.60;;;;;;8327298;28;20358;-57
2024/03/25 20:44:15;;;;;;;;;;;19.20;37.50;;;;;;8355267;27;19916;-59
2024/03/25 20:48:16;;;;;;;;;;;19.20;36.20;;;;;;8359906;28;20147;-56
2024/03/25 20:52:16;;;;;;;;;;;19.20;34.80;;;;;;8359219;28;19934;-56
2024/03/25 20:56:17;;;;;;;;;;;19.40;35.50;;;;;;8359974;28;19913;-58
2024/03/25 21:00:18;;;;;;;;;;;19.60;34.90;;;;;;8359749;28;19913;-58
2024/03/25 21:04:18;;;;;;;;;;;19.80;35.00;;;;;;8359540;28;19960;-57
2024/03/25 21:08:19;;;;;;;;;;;19.90;35.00;;;;;;8359346;28;19956;-58
2024/03/25 21:12:20;;;;;;;;;;;19.90;35.40;;;;;;8361150;27;20373;-55
2024/03/25 21:16:20;;;;;;;;;;;19.90;35.50;;;;;;8358737;28;19931;-59
2024/03/25 21:20:21;;;;;;;;;;;19.90;35.60;;;;;;8359104;27;19919;-61
2024/03/25 21:24:21;;;;;;;;;;;19.80;36.80;;;;;;8358217;28;19980;-58
2024/03/25 21:28:22;;;;;;;;;;;19.80;37.00;;;;;;8358167;28;19913;-56
2024/03/25 21:32:23;;;;;;;;;;;19.80;36.70;;;;;;8358721;28;19913;-56
2024/03/25 21:36:23;;;;;;;;;;;19.90;37.00;;;;;;8358673;28;19957;-60
2024/03/25 21:40:24;;;;;;;;;;;20.00;37.00;;;;;;8358357;28;19913;-59
2024/03/25 21:44:24;;;;;;;;;;;20.00;36.60;;;;;;8357982;28;20682;-57
2024/03/25 21:48:25;;;;;;;;;;;20.00;36.90;;;;;;8358585;28;19919;-59
2024/03/25 21:52:25;;;;;;;;;;;20.00;36.70;;;;;;8358783;28;20014;-58
2024/03/25 21:56:26;;;;;;;;;;;20.00;36.60;;;;;;8358052;28;20397;-59
2024/03/25 22:00:27;;;;;;;;;;;20.10;36.80;;;;;;8358312;28;20375;-56
2024/03/25 22:04:28;;;;;;;;;;;20.10;36.80;;;;;;8358093;28;20012;-53
2024/03/25 22:08:28;;;;;;;;;;;20.10;37.20;;;;;;8357638;28;19913;-50
2024/03/25 22:12:29;;;;;;;;;;;20.00;37.60;;;;;;8357553;28;19916;-57
2024/03/25 22:16:30;;;;;;;;;;;19.90;37.80;;;;;;8357679;28;19960;-55
2024/03/25 22:20:30;;;;;;;;;;;19.90;37.50;;;;;;8357541;28;20279;-55
2024/03/25 22:24:31;;;;;;;;;;;20.00;37.30;;;;;;8357465;28;20370;-54
2024/03/25 22:28:32;;;;;;;;;;;20.10;37.40;;;;;;8356576;28;19913;-56
2024/03/25 22:32:32;;;;;;;;;;;20.10;37.40;;;;;;8358007;28;19926;-54
2024/03/25 22:36:33;;;;;;;;;;;20.00;37.20;;;;;;8357248;28;19927;-52
2024/03/25 22:40:35;;;;;;;;;;;20.10;37.30;;;;;;8357449;28;19962;-55
2024/03/25 22:44:35;;;;;;;;;;;20.10;37.40;;;;;;8356807;28;19958;-58
2024/03/25 22:48:36;;;;;;;;;;;20.10;37.40;;;;;;8356699;28;19924;-57
2024/03/25 22:52:36;;;;;;;;;;;20.10;37.30;;;;;;8356831;27;19909;-56
2024/03/25 22:56:37;;;;;;;;;;;20.10;37.70;;;;;;8356710;28;19912;-57
2024/03/25 23:00:38;;;;;;;;;;;19.90;38.50;;;;;;8357079;28;20271;-48
2024/03/25 23:04:38;;;;;;;;;;;19.90;38.40;;;;;;8356157;28;20477;-55
2024/03/25 23:08:40;;;;;;;;;;;19.90;38.00;;;;;;8356342;28;20185;-55
2024/03/25 23:12:41;;;;;;;;;;;20.00;38.00;;;;;;8356037;28;19917;-58
2024/03/25 23:16:41;;;;;;;;;;;20.00;38.00;;;;;;8356283;28;20457;-55
2024/03/25 23:20:43;;;;;;;;;;;20.00;38.10;;;;;;8356042;27;19936;-60
2024/03/25 23:24:43;;;;;;;;;;;20.10;37.80;;;;;;8355558;28;20366;-56
2024/03/25 23:28:44;;;;;;;;;;;20.10;37.70;;;;;;8312150;27;20313;-57